createdAt,value
2018-12-09T00:02:04.221Z,6.80
2018-12-09T00:04:32.148Z,5.37
2018-12-09T00:07:00.117Z,6.43
2018-12-09T00:09:28.173Z,6.60
2018-12-09T00:11:56.121Z,7.00
2018-12-09T00:14:24.057Z,6.00
2018-12-09T00:16:52.030Z,5.73
2018-12-09T00:19:20.021Z,6.10
2018-12-09T00:21:48.031Z,5.13
2018-12-09T00:24:16.007Z,5.47
2018-12-09T00:26:43.972Z,6.77
2018-12-09T00:29:11.948Z,5.50
2018-12-09T00:31:39.950Z,6.53
2018-12-09T00:34:07.926Z,7.00
2018-12-09T00:36:35.888Z,7.90
2018-12-09T00:39:05.530Z,7.20
2018-12-09T00:41:33.558Z,8.17
2018-12-09T00:44:02.193Z,8.97
2018-12-09T00:46:30.193Z,9.20
2018-12-09T00:48:58.137Z,8.77
2018-12-09T00:51:26.164Z,9.07
2018-12-09T00:53:54.134Z,10.80
2018-12-09T00:56:22.902Z,10.50
2018-12-09T00:58:50.844Z,9.37
2018-12-09T01:01:18.817Z,10.20
2018-12-09T01:03:46.805Z,9.00
2018-12-09T01:06:14.781Z,10.33
2018-12-09T01:08:42.738Z,10.20
2018-12-09T01:11:10.693Z,8.63
2018-12-09T01:13:39.443Z,9.70
2018-12-09T01:16:07.456Z,8.20
2018-12-09T01:18:35.449Z,9.10
2018-12-09T01:21:03.453Z,8.90
2018-12-09T01:23:31.449Z,7.63
2018-12-09T01:25:59.381Z,8.90
2018-12-09T01:28:27.333Z,8.43
2018-12-09T01:30:55.636Z,8.03
2018-12-09T01:33:23.548Z,7.93
2018-12-09T01:35:51.525Z,9.20
2018-12-09T01:38:19.469Z,8.90
2018-12-09T01:40:54.639Z,8.30
2018-12-09T01:43:22.613Z,8.53
2018-12-09T01:45:50.589Z,9.30
2018-12-09T01:48:18.578Z,8.80
2018-12-09T01:50:46.666Z,9.37
2018-12-09T01:53:26.570Z,9.00
2018-12-09T01:55:54.553Z,9.37
2018-12-09T01:58:22.573Z,9.03
2018-12-09T02:00:50.481Z,8.97
2018-12-09T02:03:18.540Z,9.37
2018-12-09T02:05:46.501Z,9.17
2018-12-09T02:08:15.260Z,7.60
2018-12-09T02:10:43.312Z,9.23
2018-12-09T02:13:11.735Z,8.17
2018-12-09T02:15:39.768Z,9.53
2018-12-09T02:18:07.807Z,8.80
2018-12-09T02:20:35.779Z,9.47
2018-12-09T02:23:03.929Z,8.70
2018-12-09T02:25:31.914Z,8.07
2018-12-09T02:27:59.880Z,10.07
2018-12-09T02:30:27.893Z,8.57
2018-12-09T02:32:55.866Z,7.70
2018-12-09T02:35:23.917Z,7.80
2018-12-09T02:37:52.295Z,7.67
2018-12-09T02:40:20.255Z,8.60
2018-12-09T02:42:48.186Z,8.10
2018-12-09T02:45:16.179Z,7.97
2018-12-09T02:47:44.357Z,8.10
2018-12-09T02:50:12.313Z,8.03
2018-12-09T02:52:41.640Z,8.20
2018-12-09T02:55:09.614Z,8.60
2018-12-09T02:57:37.572Z,8.70
2018-12-09T03:00:06.341Z,7.90
2018-12-09T03:02:34.329Z,9.07
2018-12-09T03:05:02.425Z,8.10
2018-12-09T03:07:30.454Z,7.60
2018-12-09T03:09:58.693Z,6.53
2018-12-09T03:12:26.679Z,7.13
2018-12-09T03:14:54.761Z,6.30
2018-12-09T03:17:22.719Z,6.90
2018-12-09T03:19:50.762Z,6.80
2018-12-09T03:22:18.749Z,6.90
2018-12-09T03:24:46.723Z,5.57
2018-12-09T03:27:14.789Z,5.50
2018-12-09T03:29:42.758Z,6.20
2018-12-09T03:32:10.713Z,5.87
2018-12-09T03:34:38.670Z,6.70
2018-12-09T03:37:06.792Z,7.70
2018-12-09T03:39:34.805Z,7.80
2018-12-09T03:42:02.718Z,7.90
2018-12-09T03:44:30.664Z,7.57
2018-12-09T03:46:59.027Z,6.73
2018-12-09T03:49:27.113Z,6.40
2018-12-09T03:51:55.059Z,7.10
2018-12-09T03:54:23.006Z,6.57
2018-12-09T03:56:51.341Z,6.03
2018-12-09T03:59:19.294Z,5.60
2018-12-09T04:01:47.240Z,4.73
2018-12-09T04:04:15.258Z,5.03
2018-12-09T04:06:43.205Z,4.93
2018-12-09T04:09:11.530Z,5.30
2018-12-09T04:11:39.491Z,4.47
2018-12-09T04:14:07.471Z,5.00
2018-12-09T04:16:35.753Z,4.70
2018-12-09T04:19:03.766Z,5.07
2018-12-09T04:21:32.019Z,4.50
2018-12-09T04:23:59.970Z,3.87
2018-12-09T04:26:27.926Z,4.53
2018-12-09T04:28:55.879Z,4.10
2018-12-09T04:31:23.890Z,4.10
2018-12-09T04:33:51.845Z,3.07
2018-12-09T04:36:19.807Z,4.60
2018-12-09T04:38:47.748Z,3.80
2018-12-09T04:41:15.725Z,4.63
2018-12-09T04:43:43.711Z,4.93
2018-12-09T04:46:11.642Z,4.90
2018-12-09T04:48:39.581Z,4.70
2018-12-09T04:51:07.637Z,5.70
2018-12-09T04:53:35.603Z,5.00
2018-12-09T04:56:04.456Z,5.20
2018-12-09T04:58:32.413Z,4.80
2018-12-09T05:01:00.371Z,5.37
2018-12-09T05:03:28.346Z,6.33
2018-12-09T05:05:56.293Z,6.20
2018-12-09T05:08:24.241Z,6.03
2018-12-09T05:10:52.230Z,7.00
2018-12-09T05:13:20.178Z,6.30
2018-12-09T05:15:48.747Z,6.70
2018-12-09T05:18:16.738Z,6.47
2018-12-09T05:20:45.083Z,6.70
2018-12-09T05:23:13.078Z,5.90
2018-12-09T05:25:41.129Z,6.50
2018-12-09T05:28:09.092Z,5.87
2018-12-09T05:30:37.103Z,5.57
2018-12-09T05:33:05.440Z,5.50
2018-12-09T05:35:33.369Z,5.30
2018-12-09T05:38:01.322Z,5.27
2018-12-09T05:40:29.296Z,5.70
2018-12-09T05:42:57.241Z,5.10
2018-12-09T05:45:25.578Z,5.50
2018-12-09T05:47:53.617Z,5.80
2018-12-09T05:50:21.552Z,6.50
2018-12-09T05:52:49.523Z,5.20
2018-12-09T05:55:17.921Z,7.17
2018-12-09T05:57:46.827Z,5.93
2018-12-09T06:00:14.821Z,6.83
2018-12-09T06:02:50.065Z,5.43
2018-12-09T06:05:18.120Z,5.03
2018-12-09T06:07:46.091Z,5.70
2018-12-09T06:10:14.085Z,5.67
2018-12-09T06:12:42.196Z,5.80
2018-12-09T06:15:10.297Z,5.43
2018-12-09T06:17:38.257Z,4.80
2018-12-09T06:20:06.358Z,4.00
2018-12-09T06:22:34.300Z,4.77
2018-12-09T06:25:02.382Z,4.27
2018-12-09T06:27:30.424Z,4.57
2018-12-09T06:29:58.393Z,6.10
2018-12-09T06:32:26.355Z,4.53
2018-12-09T06:34:54.283Z,4.50
2018-12-09T06:37:22.222Z,4.60
2018-12-09T06:39:50.156Z,5.40
2018-12-09T06:42:18.149Z,6.30
2018-12-09T06:44:46.217Z,6.10
2018-12-09T06:47:14.288Z,7.97
2018-12-09T06:49:42.264Z,7.80
2018-12-09T06:52:10.225Z,7.00
2018-12-09T06:54:38.186Z,7.73
2018-12-09T06:57:06.332Z,7.97
2018-12-09T06:59:34.253Z,8.33
2018-12-09T07:02:02.229Z,7.40
2018-12-09T07:04:30.502Z,7.70
2018-12-09T07:06:58.450Z,7.80
2018-12-09T07:09:26.390Z,6.40
2018-12-09T07:11:54.687Z,6.13
2018-12-09T07:14:22.633Z,5.47
2018-12-09T07:16:50.605Z,6.00
2018-12-09T07:19:18.568Z,5.70
2018-12-09T07:21:46.503Z,5.33
2018-12-09T07:24:14.739Z,3.73
2018-12-09T07:26:42.813Z,3.57
2018-12-09T07:29:10.805Z,3.33
2018-12-09T07:31:38.779Z,2.90
2018-12-09T07:34:06.867Z,3.10
2018-12-09T07:36:35.425Z,2.10
2018-12-09T07:39:05.440Z,2.57
2018-12-09T07:41:33.500Z,2.67
2018-12-09T07:44:01.482Z,2.70
2018-12-09T07:46:29.453Z,2.37
2018-12-09T07:48:57.798Z,2.60
2018-12-09T07:51:25.742Z,2.20
2018-12-09T07:53:53.661Z,2.90
2018-12-09T07:56:21.655Z,2.80
2018-12-09T07:58:49.621Z,2.70
2018-12-09T08:01:17.608Z,2.50
2018-12-09T08:03:45.536Z,2.17
2018-12-09T08:06:13.497Z,2.40
2018-12-09T08:08:42.326Z,2.80
2018-12-09T08:11:10.290Z,2.07
2018-12-09T08:13:38.306Z,2.40
2018-12-09T08:16:06.289Z,2.10
2018-12-09T08:18:34.276Z,2.00
2018-12-09T08:21:02.270Z,2.07
2018-12-09T08:23:30.204Z,1.90
2018-12-09T08:25:58.152Z,2.10
2018-12-09T08:28:26.116Z,1.40
2018-12-09T08:30:54.067Z,1.90
2018-12-09T08:33:22.001Z,1.90
2018-12-09T08:35:49.990Z,1.57
2018-12-09T08:38:17.945Z,2.27
2018-12-09T08:40:45.931Z,1.70
2018-12-09T08:43:13.983Z,2.83
2018-12-09T08:45:41.934Z,1.90
2018-12-09T08:48:09.911Z,1.60
2018-12-09T08:50:37.902Z,1.60
2018-12-09T08:53:05.908Z,1.60
2018-12-09T08:55:33.828Z,1.83
2018-12-09T08:58:01.792Z,1.73
2018-12-09T09:00:29.736Z,1.13
2018-12-09T09:02:57.699Z,2.43
2018-12-09T09:05:25.678Z,1.57
2018-12-09T09:07:53.706Z,1.80
2018-12-09T09:10:22.081Z,2.20
2018-12-09T09:12:50.134Z,1.37
2018-12-09T09:15:18.149Z,1.60
2018-12-09T09:17:46.592Z,1.60
2018-12-09T09:20:14.553Z,2.00
2018-12-09T09:22:42.805Z,1.40
2018-12-09T09:25:11.254Z,1.60
2018-12-09T09:27:39.230Z,1.40
2018-12-09T09:30:07.906Z,1.50
2018-12-09T09:32:35.891Z,1.60
2018-12-09T09:35:04.038Z,1.37
2018-12-09T09:37:31.965Z,1.70
2018-12-09T09:39:59.955Z,2.07
2018-12-09T09:42:27.933Z,1.60
2018-12-09T09:44:56.236Z,1.73
2018-12-09T09:47:24.173Z,1.93
2018-12-09T09:49:52.125Z,1.20
2018-12-09T09:52:20.449Z,1.77
2018-12-09T09:54:48.629Z,2.10
2018-12-09T09:57:16.560Z,1.70
2018-12-09T09:59:44.494Z,1.10
2018-12-09T10:02:12.423Z,1.30
2018-12-09T10:04:40.534Z,1.07
2018-12-09T10:07:08.488Z,1.73
2018-12-09T10:09:36.714Z,1.17
2018-12-09T10:12:04.672Z,2.00
2018-12-09T10:14:32.735Z,1.43
2018-12-09T10:17:00.669Z,1.43
2018-12-09T10:19:28.648Z,2.30
2018-12-09T10:21:56.658Z,1.60
2018-12-09T10:24:24.588Z,1.30
2018-12-09T10:26:52.643Z,1.50
2018-12-09T10:29:20.558Z,1.00
2018-12-09T10:31:48.549Z,0.87
2018-12-09T10:34:16.513Z,1.70
2018-12-09T10:36:44.539Z,1.27
2018-12-09T10:39:12.447Z,1.20
2018-12-09T10:41:40.460Z,2.23
2018-12-09T10:44:08.466Z,1.60
2018-12-09T10:46:36.395Z,1.30
2018-12-09T10:49:05.791Z,2.43
2018-12-09T10:51:33.769Z,1.23
2018-12-09T10:54:01.717Z,1.73
2018-12-09T10:56:29.658Z,1.60
2018-12-09T10:58:57.579Z,1.20
2018-12-09T11:01:26.346Z,1.20
2018-12-09T11:03:54.865Z,1.03
2018-12-09T11:06:23.094Z,1.30
2018-12-09T11:08:51.074Z,1.50
2018-12-09T11:11:19.045Z,1.40
2018-12-09T11:13:46.998Z,1.10
2018-12-09T11:16:14.951Z,0.90
2018-12-09T11:18:43.446Z,1.03
2018-12-09T11:21:11.390Z,1.07
2018-12-09T11:23:39.329Z,1.40
2018-12-09T11:26:07.682Z,0.80
2018-12-09T11:28:35.602Z,0.90
2018-12-09T11:31:03.689Z,1.20
2018-12-09T11:33:31.721Z,1.27
2018-12-09T11:36:00.356Z,0.93
2018-12-09T11:38:29.140Z,1.10
2018-12-09T11:40:57.096Z,1.10
2018-12-09T11:43:27.337Z,1.10
2018-12-09T11:45:55.393Z,1.30
2018-12-09T11:48:23.281Z,1.30
2018-12-09T11:50:51.686Z,0.80
2018-12-09T11:53:19.625Z,1.70
2018-12-09T11:55:47.644Z,0.93
2018-12-09T11:58:15.627Z,1.30
2018-12-09T12:00:43.688Z,1.10
2018-12-09T12:03:11.585Z,1.27
2018-12-09T12:05:39.537Z,1.57
2018-12-09T12:08:07.477Z,1.47
2018-12-09T12:10:35.431Z,1.37
2018-12-09T12:13:03.400Z,1.13
2018-12-09T12:15:31.348Z,1.10
2018-12-09T12:17:59.301Z,1.47
2018-12-09T12:20:27.285Z,1.20
2018-12-09T12:22:55.224Z,1.40
2018-12-09T12:25:23.160Z,2.03
2018-12-09T12:27:51.114Z,2.57
2018-12-09T12:30:19.089Z,1.83
2018-12-09T12:32:47.053Z,2.30
2018-12-09T12:35:15.699Z,1.40
2018-12-09T12:37:43.633Z,2.30
2018-12-09T12:40:12.197Z,1.63
2018-12-09T12:42:40.242Z,1.67
2018-12-09T12:45:08.258Z,1.53
2018-12-09T12:47:36.253Z,1.93
2018-12-09T12:50:04.773Z,1.70
2018-12-09T12:52:32.788Z,1.63
2018-12-09T12:55:00.758Z,1.87
2018-12-09T12:57:28.874Z,2.03
2018-12-09T12:59:56.865Z,2.60
2018-12-09T13:02:24.825Z,1.90
2018-12-09T13:04:52.780Z,4.30
2018-12-09T13:07:20.859Z,2.97
2018-12-09T13:09:48.848Z,1.90
2018-12-09T13:12:17.492Z,2.13
2018-12-09T13:14:46.326Z,1.30
2018-12-09T13:17:14.264Z,1.47
2018-12-09T13:19:42.239Z,1.60
2018-12-09T13:22:10.206Z,1.83
2018-12-09T13:24:38.127Z,1.83
2018-12-09T13:27:06.065Z,1.83
2018-12-09T13:29:34.069Z,1.60
2018-12-09T13:32:02.005Z,1.40
2018-12-09T13:34:30.088Z,1.40
2018-12-09T13:36:58.041Z,3.20
2018-12-09T13:39:26.029Z,2.27
2018-12-09T13:41:54.047Z,1.40
2018-12-09T13:44:22.581Z,1.63
2018-12-09T13:46:50.508Z,1.77
2018-12-09T13:49:19.562Z,1.87
2018-12-09T13:51:47.564Z,1.60
2018-12-09T13:54:15.576Z,1.50
2018-12-09T13:56:43.578Z,1.97
2018-12-09T13:59:11.525Z,1.57
2018-12-09T14:01:40.266Z,1.60
2018-12-09T14:04:08.232Z,1.40
2018-12-09T14:06:37.187Z,1.83
2018-12-09T14:09:06.108Z,1.00
2018-12-09T14:11:34.341Z,1.07
2018-12-09T14:14:02.352Z,1.40
2018-12-09T14:16:30.506Z,1.40
2018-12-09T14:18:58.481Z,0.90
2018-12-09T14:21:26.430Z,0.90
2018-12-09T14:23:54.477Z,1.20
2018-12-09T14:26:22.506Z,1.13
2018-12-09T14:28:50.968Z,1.50
2018-12-09T14:31:18.918Z,1.20
2018-12-09T14:33:46.908Z,1.40
2018-12-09T14:36:14.829Z,1.73
2018-12-09T14:38:43.513Z,1.77
2018-12-09T14:41:11.452Z,1.40
2018-12-09T14:43:39.398Z,1.93
2018-12-09T14:46:07.361Z,1.20
2018-12-09T14:48:35.293Z,1.30
2018-12-09T14:51:03.218Z,2.10
2018-12-09T14:53:31.154Z,1.10
2018-12-09T14:55:59.091Z,1.63
2018-12-09T14:58:27.054Z,1.23
2018-12-09T15:00:55.000Z,1.53
2018-12-09T15:03:22.938Z,1.33
2018-12-09T15:05:50.885Z,1.50
2018-12-09T15:08:19.063Z,2.00
2018-12-09T15:10:47.035Z,2.00
2018-12-09T15:13:14.955Z,1.57
2018-12-09T15:15:42.974Z,2.00
2018-12-09T15:18:10.938Z,1.57
2018-12-09T15:20:38.917Z,2.07
2018-12-09T15:23:06.834Z,1.37
2018-12-09T15:25:34.801Z,1.60
2018-12-09T15:28:02.729Z,1.57
2018-12-09T15:30:30.680Z,1.37
2018-12-09T15:32:58.644Z,1.73
2018-12-09T15:35:26.577Z,2.23
2018-12-09T15:37:54.504Z,1.80
2018-12-09T15:40:22.483Z,2.40
2018-12-09T15:42:50.433Z,2.30
2018-12-09T15:45:18.417Z,2.23
2018-12-09T15:47:46.837Z,1.80
2018-12-09T15:50:14.913Z,2.57
2018-12-09T15:52:42.852Z,2.20
2018-12-09T15:55:11.055Z,1.63
2018-12-09T15:57:39.021Z,1.73
2018-12-09T16:00:08.251Z,2.00
2018-12-09T16:02:36.193Z,3.27
2018-12-09T16:05:04.688Z,2.00
2018-12-09T16:07:32.636Z,2.00
2018-12-09T16:10:00.614Z,2.30
2018-12-09T16:12:28.557Z,2.07
2018-12-09T16:14:56.529Z,1.70
2018-12-09T16:17:24.469Z,2.43
2018-12-09T16:19:52.445Z,2.30
2018-12-09T16:22:20.395Z,2.57
2018-12-09T16:24:48.329Z,2.70
2018-12-09T16:27:16.401Z,2.03
2018-12-09T16:29:44.327Z,2.00
2018-12-09T16:32:12.390Z,2.47
2018-12-09T16:34:40.343Z,2.87
2018-12-09T16:37:08.309Z,3.10
2018-12-09T16:39:36.867Z,2.00
2018-12-09T16:42:04.833Z,2.50
2018-12-09T16:44:32.788Z,2.03
2018-12-09T16:47:00.839Z,2.80
2018-12-09T16:49:28.887Z,3.00
2018-12-09T16:51:57.866Z,2.40
2018-12-09T16:54:25.801Z,3.43
2018-12-09T16:56:53.725Z,3.00
2018-12-09T16:59:21.686Z,2.47
2018-12-09T17:01:49.649Z,2.67
2018-12-09T17:04:17.608Z,2.57
2018-12-09T17:06:45.581Z,2.23
2018-12-09T17:09:13.545Z,2.23
2018-12-09T17:11:41.641Z,2.30
2018-12-09T17:14:09.641Z,2.60
2018-12-09T17:16:37.651Z,3.40
2018-12-09T17:19:05.616Z,3.77
2018-12-09T17:21:33.617Z,3.00
2018-12-09T17:24:01.768Z,2.83
2018-12-09T17:26:29.702Z,3.23
2018-12-09T17:29:05.190Z,3.63
2018-12-09T17:31:27.799Z,2.93
2018-12-09T17:33:56.457Z,3.00
2018-12-09T17:36:24.409Z,5.83
2018-12-09T17:38:52.405Z,3.97
2018-12-09T17:41:24.973Z,3.30
2018-12-09T17:43:50.252Z,3.13
2018-12-09T17:46:18.202Z,3.70
2018-12-09T17:48:46.152Z,2.77
2018-12-09T17:51:14.151Z,3.43
2018-12-09T17:53:42.151Z,2.87
2018-12-09T17:56:10.220Z,3.10
2018-12-09T17:58:38.181Z,2.50
2018-12-09T18:01:08.132Z,3.17
2018-12-09T18:03:36.100Z,4.30
2018-12-09T18:06:04.116Z,3.27
2018-12-09T18:08:32.077Z,4.87
2018-12-09T18:11:00.506Z,3.00
2018-12-09T18:13:29.156Z,3.73
2018-12-09T18:15:59.376Z,3.17
2018-12-09T18:18:27.297Z,3.37
2018-12-09T18:20:55.249Z,3.83
2018-12-09T18:23:23.224Z,4.73
2018-12-09T18:25:51.179Z,3.57
2018-12-09T18:28:19.149Z,3.17
2018-12-09T18:30:47.568Z,3.33
2018-12-09T18:33:15.577Z,3.53
2018-12-09T18:35:44.239Z,3.23
2018-12-09T18:38:12.983Z,4.20
2018-12-09T18:40:40.996Z,4.37
2018-12-09T18:43:08.961Z,3.40
2018-12-09T18:45:36.892Z,4.20
2018-12-09T18:48:04.915Z,4.20
2018-12-09T18:50:32.961Z,3.33
2018-12-09T18:53:00.902Z,3.03
2018-12-09T18:55:28.895Z,3.20
2018-12-09T18:57:56.881Z,2.00
2018-12-09T19:00:24.908Z,2.43
2018-12-09T19:02:52.853Z,4.13
2018-12-09T19:05:20.876Z,2.73
2018-12-09T19:07:49.148Z,4.07
2018-12-09T19:10:17.136Z,3.03
2018-12-09T19:12:45.294Z,1.80
2018-12-09T19:15:13.284Z,2.30
2018-12-09T19:17:41.434Z,3.07
2018-12-09T19:20:09.377Z,2.90
2018-12-09T19:22:37.355Z,2.40
2018-12-09T19:25:05.620Z,2.70
2018-12-09T19:27:33.604Z,2.40
2018-12-09T19:30:01.538Z,2.40
2018-12-09T19:32:29.483Z,1.80
2018-12-09T19:34:58.285Z,2.73
2018-12-09T19:37:26.217Z,2.80
2018-12-09T19:39:54.143Z,2.40
2018-12-09T19:42:22.077Z,2.17
2018-12-09T19:44:50.209Z,2.83
2018-12-09T19:47:18.263Z,1.90
2018-12-09T19:49:46.270Z,1.73
2018-12-09T19:52:14.504Z,2.20
2018-12-09T19:54:42.513Z,2.07
2018-12-09T19:57:10.461Z,2.40
2018-12-09T19:59:38.429Z,5.20
2018-12-09T20:02:06.442Z,1.90
2018-12-09T20:04:34.611Z,2.53
2018-12-09T20:07:02.530Z,1.40
2018-12-09T20:09:30.474Z,1.80
2018-12-09T20:11:58.535Z,1.63
2018-12-09T20:14:26.529Z,1.87
2018-12-09T20:16:54.443Z,1.83
2018-12-09T20:19:22.433Z,1.50
2018-12-09T20:21:50.714Z,1.67
2018-12-09T20:24:18.848Z,2.13
2018-12-09T20:26:46.773Z,2.10
2018-12-09T20:29:14.905Z,1.50
2018-12-09T20:31:42.855Z,1.93
2018-12-09T20:34:10.856Z,1.67
2018-12-09T20:36:38.938Z,1.63
2018-12-09T20:39:07.086Z,3.80
2018-12-09T20:41:35.011Z,3.70
2018-12-09T20:44:03.029Z,8.93
2018-12-09T20:46:31.056Z,4.17
2018-12-09T20:48:58.993Z,2.70
2018-12-09T20:51:27.002Z,5.50
2018-12-09T20:53:54.934Z,3.10
2018-12-09T20:56:22.999Z,5.27
2018-12-09T20:58:51.036Z,5.00
2018-12-09T21:01:19.459Z,3.33
2018-12-09T21:03:47.390Z,1.67
2018-12-09T21:06:15.334Z,2.30
2018-12-09T21:08:43.279Z,1.60
2018-12-09T21:11:12.184Z,1.40
2018-12-09T21:13:40.169Z,1.50
2018-12-09T21:16:08.210Z,4.03
2018-12-09T21:18:36.351Z,4.10
2018-12-09T21:21:04.317Z,12.50
2018-12-09T21:23:32.396Z,2.90
2018-12-09T21:26:00.306Z,5.30
2018-12-09T21:28:28.249Z,9.90
2018-12-09T21:30:56.218Z,5.70
2018-12-09T21:33:24.205Z,3.83
2018-12-09T21:35:52.189Z,4.20
2018-12-09T21:38:20.152Z,3.00
2018-12-09T21:40:48.107Z,1.53
2018-12-09T21:43:16.091Z,3.20
2018-12-09T21:45:44.014Z,1.80
2018-12-09T21:48:12.489Z,1.77
2018-12-09T21:50:40.699Z,1.50
2018-12-09T21:53:09.155Z,1.47
2018-12-09T21:55:37.049Z,1.40
2018-12-09T21:58:04.994Z,1.50
2018-12-09T22:00:32.954Z,1.47
2018-12-09T22:03:00.972Z,1.33
2018-12-09T22:05:28.917Z,1.80
2018-12-09T22:07:56.862Z,1.70
2018-12-09T22:10:24.814Z,1.53
2018-12-09T22:12:52.808Z,1.53
2018-12-09T22:15:20.793Z,2.90
2018-12-09T22:17:48.790Z,2.40
2018-12-09T22:20:16.733Z,2.80
2018-12-09T22:22:44.709Z,3.20
2018-12-09T22:25:12.679Z,3.07
2018-12-09T22:27:40.625Z,3.03
2018-12-09T22:30:08.577Z,3.20
2018-12-09T22:32:36.646Z,3.83
2018-12-09T22:35:05.277Z,3.70
2018-12-09T22:37:33.344Z,2.50
2018-12-09T22:40:01.255Z,2.87
2018-12-09T22:42:29.257Z,3.93
2018-12-09T22:44:57.200Z,4.93
2018-12-09T22:47:25.164Z,5.10
2018-12-09T22:49:53.138Z,3.20
2018-12-09T22:52:21.342Z,3.53
2018-12-09T22:54:49.301Z,4.80
2018-12-09T22:57:17.334Z,4.40
2018-12-09T22:59:45.455Z,4.23
2018-12-09T23:02:18.989Z,3.93
2018-12-09T23:04:47.015Z,3.50
2018-12-09T23:07:20.729Z,5.60
2018-12-09T23:09:49.208Z,3.40
2018-12-09T23:12:17.293Z,4.17
2018-12-09T23:14:45.409Z,4.87
2018-12-09T23:17:13.377Z,3.70
2018-12-09T23:19:41.338Z,4.30
2018-12-09T23:22:09.313Z,4.13
2018-12-09T23:24:37.306Z,5.27
2018-12-09T23:27:05.285Z,5.37
2018-12-09T23:29:33.244Z,4.20
2018-12-09T23:32:01.671Z,4.20
2018-12-09T23:34:29.574Z,3.87
2018-12-09T23:36:57.853Z,5.30
2018-12-09T23:39:25.836Z,3.97
2018-12-09T23:41:53.780Z,4.33
2018-12-09T23:44:21.715Z,3.47
2018-12-09T23:46:50.463Z,3.53
2018-12-09T23:49:18.413Z,3.33
2018-12-09T23:51:46.433Z,3.90
2018-12-09T23:54:14.428Z,4.90
2018-12-09T23:56:42.414Z,4.93
2018-12-09T23:59:10.387Z,4.43
